Time;durP1;ratioP1;P1;durP2;ratioP2;P2;SDS_P1;SDS_P2;PMS_P1;PMS_P2;Temp;Humidity;BMP_temperature;BMP_pressure;BME280_temperature;BME280_humidity;BME280_pressure;Samples;Min_cycle;Max_cycle;Signal;HPM_P1;HPM_P2
2021/07/13 00:02:12;;;;;;;8.93;5.60;;;;;;;23.67;59.83;96725.06;5014539;28;20040;-62
2021/07/13 00:04:38;;;;;;;8.80;5.60;;;;;;;23.74;59.86;96720.34;5014229;28;20034;-62
2021/07/13 00:07:04;;;;;;;11.55;5.20;;;;;;;23.63;60.01;96707.34;5014320;28;20379;-62
2021/07/13 00:09:29;;;;;;;8.98;5.38;;;;;;;23.55;60.38;96694.75;5014011;28;20025;-62
2021/07/13 00:11:56;;;;;;;8.85;5.80;;;;;;;23.50;60.91;96705.53;5012895;28;20405;-62
2021/07/13 00:14:22;;;;;;;9.23;5.43;;;;;;;23.45;61.04;96724.56;5012829;28;20029;-62
2021/07/13 00:16:47;;;;;;;11.77;5.50;;;;;;;23.27;62.01;96717.91;5014304;28;20026;-62
2021/07/13 00:19:13;;;;;;;13.52;5.80;;;;;;;23.20;62.43;96717.94;5013897;28;20417;-62
2021/07/13 00:21:39;;;;;;;10.57;5.70;;;;;;;23.17;62.70;96721.13;5013816;28;20037;-62
2021/07/13 00:24:05;;;;;;;10.18;5.40;;;;;;;23.17;62.62;96725.75;5014463;28;20030;-62
2021/07/13 00:26:31;;;;;;;14.38;5.95;;;;;;;23.09;63.30;96721.38;5014086;28;20057;-62
2021/07/13 00:28:56;;;;;;;10.85;5.70;;;;;;;22.94;63.96;96720.78;5012916;28;20522;-62
2021/07/13 00:31:22;;;;;;;14.40;6.00;;;;;;;22.95;63.80;96708.75;5014171;28;20076;-63
2021/07/13 00:33:47;;;;;;;10.45;5.93;;;;;;;22.93;63.84;96695.28;5013800;28;20109;-62
2021/07/13 00:36:12;;;;;;;13.73;6.70;;;;;;;23.14;62.72;96693.31;5014008;28;20029;-62
2021/07/13 00:38:38;;;;;;;9.00;6.00;;;;;;;23.02;63.13;96698.59;5013704;28;20088;-62
2021/07/13 00:41:03;;;;;;;9.18;6.47;;;;;;;22.96;63.41;96686.59;5013868;28;20116;-62
2021/07/13 00:43:29;;;;;;;9.95;6.78;;;;;;;22.93;63.62;96677.97;5012408;28;20475;-62
2021/07/13 00:45:54;;;;;;;9.05;6.78;;;;;;;22.88;63.56;96684.94;5013938;28;20073;-62
2021/07/13 00:48:21;;;;;;;11.07;6.32;;;;;;;22.88;63.54;96684.13;5012767;28;20030;-62
2021/07/13 00:50:47;;;;;;;12.95;7.05;;;;;;;22.76;64.26;96683.13;5013465;28;20033;-62
2021/07/13 00:53:12;;;;;;;9.18;6.63;;;;;;;22.59;65.26;96688.25;5012674;28;20034;-62
2021/07/13 00:55:38;;;;;;;8.52;6.25;;;;;;;22.50;65.41;96685.75;5013385;28;20513;-62
2021/07/13 00:58:04;;;;;;;10.35;6.82;;;;;;;22.49;65.56;96681.31;5013739;28;20151;-62
2021/07/13 01:00:32;;;;;;;13.10;7.00;;;;;;;22.56;65.03;96686.78;5013261;28;20034;-62
2021/07/13 01:03:01;;;;;;;9.45;6.82;;;;;;;22.46;65.47;96692.72;5013781;28;20490;-62
2021/07/13 01:05:33;;;;;;;12.57;7.05;;;;;;;22.40;65.64;96693.56;5013418;28;20061;-62
2021/07/13 01:08:11;;;;;;;12.05;6.95;;;;;;;22.36;66.13;96693.13;5016850;28;20041;-62
2021/07/13 01:10:36;;;;;;;12.68;6.93;;;;;;;22.38;65.95;96688.31;5017954;28;20104;-62
2021/07/13 01:13:16;;;;;;;11.57;7.18;;;;;;;22.41;65.48;96678.81;5017504;28;20506;-62
2021/07/13 01:15:52;;;;;;;9.63;7.22;;;;;;;22.25;66.13;96660.91;5017816;28;20018;-62
2021/07/13 01:18:22;;;;;;;13.48;7.38;;;;;;;22.22;66.21;96643.00;5017767;28;20018;-63
2021/07/13 01:21:04;;;;;;;12.63;7.95;;;;;;;22.10;66.29;96631.03;5016025;28;20026;-62
2021/07/13 01:23:49;;;;;;;11.45;7.20;;;;;;;22.00;66.12;96642.41;5016229;28;20033;-62
2021/07/13 01:26:33;;;;;;;11.60;6.97;;;;;;;21.89;66.37;96638.44;5016225;28;20026;-62
2021/07/13 01:29:03;;;;;;;9.02;6.63;;;;;;;22.02;65.53;96636.72;5017520;28;20033;-62
2021/07/13 01:31:29;;;;;;;12.40;6.28;;;;;;;22.16;64.96;96632.06;5016992;28;20022;-62
2021/07/13 01:34:01;;;;;;;11.23;6.00;;;;;;;22.22;63.46;96631.19;5016080;28;20105;-62
2021/07/13 01:36:28;;;;;;;10.90;6.30;;;;;;;22.05;63.29;96622.63;5015771;28;20058;-62
2021/07/13 01:38:55;;;;;;;8.10;5.40;;;;;;;22.08;63.40;96622.19;4999172;28;20458;-62
2021/07/13 01:41:23;;;;;;;9.73;6.07;;;;;;;22.10;63.30;96627.44;5015735;28;20393;-62
2021/07/13 01:43:50;;;;;;;11.88;5.95;;;;;;;22.06;63.65;96618.81;4999160;28;20395;-62
2021/07/13 01:46:16;;;;;;;10.13;6.05;;;;;;;22.15;62.77;96625.72;5016739;28;20064;-62
2021/07/13 01:48:43;;;;;;;10.90;5.70;;;;;;;22.14;63.48;96618.59;5016774;28;20030;-62
2021/07/13 01:51:08;;;;;;;9.32;5.80;;;;;;;22.16;62.51;96613.72;5015467;28;20030;-62
2021/07/13 01:53:35;;;;;;;9.45;5.65;;;;;;;22.33;62.12;96616.00;5015459;28;20030;-62
2021/07/13 01:56:01;;;;;;;10.80;5.68;;;;;;;22.27;62.55;96616.88;5015238;28;20068;-62
2021/07/13 01:58:28;;;;;;;10.18;5.80;;;;;;;22.25;61.76;96600.66;5015541;28;20026;-62
2021/07/13 02:00:56;;;;;;;8.57;5.43;;;;;;;22.26;62.67;96599.59;5015277;28;20375;-62
2021/07/13 02:03:27;;;;;;;12.63;5.57;;;;;;;22.14;62.41;96596.69;5015339;28;20482;-62
2021/07/13 02:05:55;;;;;;;10.57;5.50;;;;;;;21.94;63.62;96601.34;5016496;28;20475;-62
2021/07/13 02:08:21;;;;;;;8.65;5.45;;;;;;;22.00;63.43;96592.28;5015156;28;20029;-62
2021/07/13 02:10:47;;;;;;;11.55;5.78;;;;;;;21.94;64.89;96594.00;5015057;28;20025;-62
2021/07/13 02:13:14;;;;;;;12.57;6.03;;;;;;;21.91;64.76;96583.47;5015090;28;20049;-62
2021/07/13 02:15:41;;;;;;;7.55;5.53;;;;;;;21.96;64.27;96589.13;5016442;28;20053;-62
2021/07/13 02:18:06;;;;;;;12.25;6.10;;;;;;;22.00;64.12;96589.56;5014740;28;20029;-62
2021/07/13 02:20:32;;;;;;;9.57;5.55;;;;;;;21.96;64.14;96582.84;5015975;28;20545;-62
2021/07/13 02:22:57;;;;;;;9.63;5.95;;;;;;;21.92;64.23;96579.66;5015063;28;20062;-62
2021/07/13 02:25:23;;;;;;;10.68;5.72;;;;;;;21.98;64.19;96569.75;5016032;28;20030;-62
2021/07/13 02:28:00;;;;;;;9.73;6.43;;;;;;;21.99;63.92;96576.91;5014857;28;20030;-62
2021/07/13 02:30:26;;;;;;;11.38;6.72;;;;;;;21.97;64.02;96568.09;5014783;28;20034;-62
2021/07/13 02:32:58;;;;;;;8.63;6.18;;;;;;;22.05;64.08;96574.16;5016116;28;20032;-62
2021/07/13 02:35:31;;;;;;;10.52;6.63;;;;;;;22.08;64.42;96570.97;5014923;28;20022;-62
2021/07/13 02:37:56;;;;;;;11.35;6.80;;;;;;;22.04;64.50;96572.47;5014751;28;20026;-62
2021/07/13 02:40:22;;;;;;;10.23;6.60;;;;;;;22.07;64.50;96568.47;5014427;28;20367;-62
2021/07/13 02:42:48;;;;;;;10.30;6.80;;;;;;;21.97;64.81;96571.66;5014498;28;20367;-62
2021/07/13 02:45:15;;;;;;;9.20;6.85;;;;;;;21.96;65.07;96560.94;5014319;28;20429;-62
2021/07/13 02:47:47;;;;;;;12.45;7.03;;;;;;;21.88;65.73;96571.03;5014710;28;20105;-62
2021/07/13 02:50:14;;;;;;;9.38;6.47;;;;;;;21.83;66.06;96573.59;5014413;28;20026;-62
2021/07/13 02:52:40;;;;;;;9.52;6.85;;;;;;;21.83;65.91;96576.34;5015999;28;20033;-62
2021/07/13 02:55:11;;;;;;;11.73;6.90;;;;;;;21.85;65.81;96571.47;5014206;28;20468;-62
2021/07/13 02:57:39;;;;;;;13.52;7.05;;;;;;;21.83;66.01;96559.06;5014225;28;20123;-62
2021/07/13 03:00:09;;;;;;;13.13;8.15;;;;;;;21.76;65.67;96550.03;5014071;28;20038;-62
2021/07/13 03:02:34;;;;;;;14.07;8.10;;;;;;;21.74;65.92;96536.56;5014097;28;20026;-63
2021/07/13 03:05:00;;;;;;;10.55;7.88;;;;;;;21.67;66.12;96535.72;4997690;28;20493;-62
2021/07/13 03:07:26;;;;;;;11.65;7.82;;;;;;;21.71;66.36;96545.19;5013636;28;20037;-62
2021/07/13 03:09:52;;;;;;;11.88;8.27;;;;;;;21.77;65.65;96533.41;5013864;28;20032;-62
2021/07/13 03:12:17;;;;;;;12.13;8.20;;;;;;;21.72;65.28;96525.81;5013968;28;20371;-62
2021/07/13 03:14:43;;;;;;;14.13;7.85;;;;;;;21.76;65.50;96523.50;5015045;28;20172;-63
2021/07/13 03:17:13;;;;;;;13.05;8.05;;;;;;;21.77;65.64;96516.97;5014985;28;20033;-62
2021/07/13 03:19:38;;;;;;;14.48;7.57;;;;;;;21.74;65.47;96515.50;5013557;28;20028;-62
2021/07/13 03:22:07;;;;;;;11.95;7.53;;;;;;;21.71;64.66;96521.41;5014009;28;20025;-63
2021/07/13 03:24:33;;;;;;;10.40;7.60;;;;;;;21.61;64.76;96509.22;5013779;28;20021;-62
2021/07/13 03:26:59;;;;;;;14.35;8.30;;;;;;;21.71;63.57;96504.13;5013907;28;20026;-63
2021/07/13 03:29:25;;;;;;;14.93;7.95;;;;;;;21.81;64.23;96501.81;5012545;28;20052;-62
2021/07/13 03:31:52;;;;;;;15.68;7.47;;;;;;;21.90;63.74;96516.94;5014836;28;20018;-62
2021/07/13 03:34:18;;;;;;;11.48;7.82;;;;;;;21.84;62.56;96504.09;5014943;28;20390;-62
2021/07/13 03:36:44;;;;;;;13.43;7.82;;;;;;;22.02;62.03;96483.38;5013487;28;20414;-62
2021/07/13 03:39:09;;;;;;;12.95;7.53;;;;;;;21.96;61.81;96465.13;5013581;28;20470;-62
2021/07/13 03:41:35;;;;;;;14.65;7.90;;;;;;;22.03;61.26;96457.69;5014801;28;20030;-62
2021/07/13 03:44:04;;;;;;;13.23;7.32;;;;;;;21.80;62.47;96461.78;5013719;28;20120;-62
2021/07/13 03:46:36;;;;;;;15.02;6.97;;;;;;;21.83;61.69;96458.66;5014610;28;20030;-62
2021/07/13 03:49:04;;;;;;;11.05;6.95;;;;;;;21.78;61.72;96483.09;5014648;28;20034;-62
2021/07/13 03:51:45;;;;;;;11.70;6.72;;;;;;;21.79;62.04;96475.69;5013266;28;20498;-62
2021/07/13 03:54:13;;;;;;;10.13;6.82;;;;;;;21.54;63.58;96476.41;5014154;28;20022;-62
2021/07/13 03:56:39;;;;;;;13.05;7.22;;;;;;;21.72;62.69;96481.19;5014713;28;20041;-62
2021/07/13 03:59:07;;;;;;;13.77;7.28;;;;;;;21.71;62.89;96487.72;5014264;28;20030;-62
2021/07/13 04:01:33;;;;;;;15.50;7.13;;;;;;;21.61;63.42;96490.09;5014486;28;20037;-62
2021/07/13 04:03:58;;;;;;;14.55;7.03;;;;;;;21.64;63.10;96487.75;4996675;28;20030;-63
2021/07/13 04:06:23;;;;;;;11.60;7.28;;;;;;;21.66;63.23;96473.84;5014357;28;20030;-63
2021/07/13 04:08:49;;;;;;;12.50;7.50;;;;;;;21.77;62.64;96462.25;5012890;28;20022;-63
2021/07/13 04:11:14;;;;;;;14.25;7.90;;;;;;;21.80;62.47;96463.72;5014086;28;20100;-63
2021/07/13 04:13:40;;;;;;;12.63;7.20;;;;;;;21.94;62.12;96469.94;5014618;28;20036;-62
2021/07/13 04:16:05;;;;;;;13.40;8.00;;;;;;;21.90;61.68;96461.34;5014397;28;20106;-63
2021/07/13 04:18:30;;;;;;;10.75;7.05;;;;;;;21.98;62.08;96454.78;5012721;28;20402;-62
2021/07/13 04:20:56;;;;;;;10.27;6.95;;;;;;;22.08;60.74;96460.63;5013806;28;20034;-62
2021/07/13 04:23:21;;;;;;;11.40;6.80;;;;;;;22.13;61.50;96463.56;5012757;28;20026;-62
2021/07/13 04:25:47;;;;;;;11.80;6.90;;;;;;;22.20;61.50;96453.41;5014479;28;20034;-62
2021/07/13 04:28:13;;;;;;;12.75;7.13;;;;;;;22.35;60.57;96446.81;5012917;28;20038;-62
2021/07/13 04:30:38;;;;;;;11.02;6.60;;;;;;;22.40;60.81;96438.78;5012698;28;20110;-62
2021/07/13 04:33:04;;;;;;;9.85;6.18;;;;;;;22.45;60.08;96418.94;5012500;28;20080;-62
2021/07/13 04:35:29;;;;;;;12.77;6.57;;;;;;;22.45;59.85;96408.84;5014027;28;20057;-62
2021/07/13 04:37:55;;;;;;;12.38;6.95;;;;;;;22.18;60.25;96410.84;5013962;28;20057;-62
2021/07/13 04:40:21;;;;;;;11.07;6.47;;;;;;;22.24;60.41;96432.72;5012060;28;20487;-62
2021/07/13 04:42:46;;;;;;;9.60;6.63;;;;;;;22.32;60.07;96452.72;5013758;28;20022;-62
2021/07/13 04:45:12;;;;;;;10.63;6.30;;;;;;;22.32;60.28;96447.25;5012508;28;20030;-62
2021/07/13 04:47:37;;;;;;;11.15;6.50;;;;;;;22.37;60.02;96458.41;5013655;28;20029;-62
2021/07/13 04:50:04;;;;;;;10.10;6.90;;;;;;;22.49;59.53;96453.91;5013760;28;20393;-62
2021/07/13 04:52:29;;;;;;;10.48;6.38;;;;;;;22.52;59.59;96438.91;5013794;28;20033;-62
2021/07/13 04:54:55;;;;;;;11.68;6.82;;;;;;;22.51;59.68;96424.38;5013427;28;20069;-62
2021/07/13 04:57:20;;;;;;;12.32;6.60;;;;;;;22.40;60.40;96420.44;5012387;28;20057;-62
2021/07/13 04:59:45;;;;;;;14.68;7.20;;;;;;;22.50;59.61;96411.75;5013593;28;20033;-62
2021/07/13 05:02:11;;;;;;;13.93;6.65;;;;;;;22.54;58.36;96412.97;5012452;28;20022;-63
2021/07/13 05:04:36;;;;;;;13.00;6.38;;;;;;;22.63;58.55;96415.44;5013478;28;20049;-62
2021/07/13 05:07:02;;;;;;;11.32;6.32;;;;;;;22.70;58.60;96425.31;5013692;28;20030;-64
2021/07/13 05:09:28;;;;;;;12.50;6.18;;;;;;;22.72;58.13;96419.59;5013175;28;20120;-63
2021/07/13 05:11:53;;;;;;;11.57;6.30;;;;;;;22.77;57.87;96414.28;5013889;28;20054;-63
2021/07/13 05:14:19;;;;;;;9.27;6.65;;;;;;;22.69;58.13;96406.34;5012264;28;20104;-63
2021/07/13 05:16:44;;;;;;;11.80;7.32;;;;;;;22.74;58.79;96398.25;5013298;28;20076;-63
2021/07/13 05:19:12;;;;;;;9.15;6.32;;;;;;;22.68;58.68;96405.50;5013069;28;20061;-63
2021/07/13 05:21:40;;;;;;;10.20;6.90;;;;;;;22.71;58.82;96413.25;5013507;28;20164;-63
2021/07/13 05:24:05;;;;;;;11.65;6.70;;;;;;;22.63;59.17;96404.47;5013447;28;20034;-63
2021/07/13 05:26:31;;;;;;;10.07;6.97;;;;;;;22.67;59.22;96403.81;5013339;28;20018;-63
2021/07/13 05:28:59;;;;;;;15.90;7.45;;;;;;;22.65;59.71;96410.56;5013363;28;20030;-62
2021/07/13 05:31:25;;;;;;;14.55;7.25;;;;;;;22.65;59.49;96408.69;5013147;28;20022;-63
2021/07/13 05:33:57;;;;;;;14.77;7.35;;;;;;;22.61;59.76;96410.19;5013419;28;20363;-63
2021/07/13 05:36:22;;;;;;;12.50;7.03;;;;;;;22.59;59.63;96414.22;5013614;28;20080;-63
2021/07/13 05:38:47;;;;;;;12.25;7.22;;;;;;;22.60;60.00;96416.72;5013200;28;20018;-63
2021/07/13 05:41:13;;;;;;;11.52;8.25;;;;;;;22.58;60.37;96405.13;5013297;28;20091;-63
2021/07/13 05:43:38;;;;;;;11.57;8.30;;;;;;;22.64;60.32;96395.22;5011809;28;20529;-64
2021/07/13 05:46:04;;;;;;;11.13;7.78;;;;;;;22.71;60.27;96382.28;5012126;28;20037;-63
2021/07/13 05:48:29;;;;;;;16.13;8.27;;;;;;;22.67;60.21;96386.53;5013233;28;20414;-63
2021/07/13 05:50:54;;;;;;;12.85;8.55;;;;;;;22.61;60.74;96373.72;5013464;28;20470;-63
2021/07/13 05:53:20;;;;;;;13.40;8.13;;;;;;;22.84;60.14;96370.38;5015294;28;20048;-63
2021/07/13 05:55:45;;;;;;;10.88;8.10;;;;;;;22.79;60.18;96367.47;5016364;28;20052;-63
2021/07/13 05:58:11;;;;;;;11.60;7.82;;;;;;;22.90;59.59;96364.81;5016771;28;20522;-63
2021/07/13 06:00:36;;;;;;;13.82;7.80;;;;;;;22.97;58.89;96369.38;5016381;28;20069;-63
2021/07/13 06:03:01;;;;;;;10.98;7.97;;;;;;;22.89;58.64;96357.66;5016657;28;20486;-63
2021/07/13 06:05:27;;;;;;;10.65;7.53;;;;;;;23.06;58.67;96357.06;5014942;28;20117;-63
2021/07/13 06:07:52;;;;;;;11.10;8.00;;;;;;;23.12;58.79;96360.81;5016321;28;20399;-63
2021/07/13 06:10:18;;;;;;;13.35;8.25;;;;;;;23.20;58.42;96363.28;5015151;28;20072;-63
2021/07/13 06:12:45;;;;;;;13.85;8.35;;;;;;;23.11;58.97;96359.13;5016124;28;20033;-63
2021/07/13 06:15:11;;;;;;;14.23;9.18;;;;;;;22.86;59.33;96362.75;5016421;28;20036;-63
2021/07/13 06:17:39;;;;;;;15.73;9.05;;;;;;;22.98;59.38;96369.19;5016360;28;20029;-63
2021/07/13 06:20:05;;;;;;;15.68;9.45;;;;;;;22.89;59.78;96370.53;5016211;28;20037;-63
2021/07/13 06:22:30;;;;;;;15.13;8.50;;;;;;;22.96;59.18;96370.47;5015904;28;20069;-63
2021/07/13 06:24:56;;;;;;;13.10;8.73;;;;;;;22.79;59.85;96361.97;5016262;28;20030;-63
2021/07/13 06:27:22;;;;;;;13.40;9.15;;;;;;;22.74;60.09;96371.72;5014833;28;20030;-63
2021/07/13 06:29:47;;;;;;;12.77;8.98;;;;;;;22.69;60.28;96366.06;5016045;28;20096;-63
2021/07/13 06:32:13;;;;;;;11.27;8.90;;;;;;;22.65;59.90;96361.25;5016090;28;20129;-63
2021/07/13 06:34:38;;;;;;;13.27;8.85;;;;;;;22.89;59.58;96365.06;5015716;28;20026;-63
2021/07/13 06:37:03;;;;;;;14.93;9.65;;;;;;;22.82;59.43;96347.81;5014614;28;20040;-63
2021/07/13 06:39:29;;;;;;;13.05;8.82;;;;;;;22.98;58.91;96354.63;5015764;28;20045;-63
2021/07/13 06:41:55;;;;;;;15.15;9.43;;;;;;;23.13;58.92;96354.25;5015424;28;20559;-63
2021/07/13 06:44:20;;;;;;;16.42;8.70;;;;;;;23.28;58.31;96359.41;5015930;28;20036;-63
2021/07/13 06:46:46;;;;;;;16.65;8.95;;;;;;;23.22;58.90;96355.66;5015429;28;20034;-63
2021/07/13 06:49:11;;;;;;;15.02;8.13;;;;;;;23.16;58.49;96357.41;5015731;28;20030;-63
2021/07/13 06:51:36;;;;;;;15.00;8.20;;;;;;;23.17;58.08;96356.34;5015419;28;20026;-63
2021/07/13 06:54:02;;;;;;;13.52;7.47;;;;;;;23.19;58.09;96359.69;5015324;28;20132;-63
2021/07/13 06:56:28;;;;;;;11.93;8.27;;;;;;;23.30;57.81;96368.22;5014521;28;20034;-63
2021/07/13 06:58:54;;;;;;;12.88;8.10;;;;;;;23.15;58.37;96377.66;5015135;28;20022;-63
2021/07/13 07:01:19;;;;;;;13.60;7.75;;;;;;;23.23;57.79;96373.78;5015559;28;20113;-64
2021/07/13 07:03:45;;;;;;;13.95;7.50;;;;;;;23.29;57.74;96372.91;5015151;28;20060;-64
2021/07/13 07:06:10;;;;;;;14.82;7.68;;;;;;;23.20;57.77;96364.13;5015293;28;20029;-63
2021/07/13 07:08:35;;;;;;;11.85;7.32;;;;;;;23.25;57.18;96374.41;5014963;28;20038;-63
2021/07/13 07:11:01;;;;;;;13.55;7.38;;;;;;;23.22;57.53;96374.84;5015360;28;20037;-63
2021/07/13 07:13:26;;;;;;;13.38;7.82;;;;;;;23.15;57.96;96371.34;5015061;28;20391;-63
2021/07/13 07:15:52;;;;;;;14.40;7.88;;;;;;;23.18;57.99;96365.41;5015033;28;20100;-63
2021/07/13 07:18:17;;;;;;;11.88;7.60;;;;;;;23.07;58.32;96362.31;5015163;28;20036;-63
2021/07/13 07:20:42;;;;;;;13.10;7.55;;;;;;;23.15;58.41;96374.09;5013799;28;20056;-63
2021/07/13 07:23:08;;;;;;;11.43;7.47;;;;;;;23.15;57.93;96376.84;5015092;28;20026;-63
2021/07/13 07:25:34;;;;;;;14.68;7.47;;;;;;;23.15;58.38;96387.81;5013482;28;20109;-63
2021/07/13 07:28:03;;;;;;;15.40;7.30;;;;;;;23.18;57.45;96392.84;5013542;28;20032;-63
2021/07/13 07:30:29;;;;;;;14.40;7.18;;;;;;;23.29;57.29;96403.06;5014764;28;20087;-63
2021/07/13 07:32:56;;;;;;;13.13;6.93;;;;;;;23.10;57.94;96380.22;5013513;28;20034;-63
2021/07/13 07:35:21;;;;;;;14.02;7.63;;;;;;;23.14;57.85;96380.63;5013737;28;20034;-63
2021/07/13 07:37:47;;;;;;;11.95;8.05;;;;;;;23.10;57.91;96365.69;5014890;28;20037;-63
2021/07/13 07:40:17;;;;;;;12.85;7.57;;;;;;;23.12;57.50;96369.88;5014728;28;20030;-63
2021/07/13 07:42:43;;;;;;;13.70;6.87;;;;;;;23.18;57.29;96374.50;5014802;28;20386;-63
2021/07/13 07:45:09;;;;;;;11.70;6.28;;;;;;;23.18;56.73;96359.91;5013287;28;20280;-63
2021/07/13 07:47:35;;;;;;;11.30;7.07;;;;;;;23.19;57.14;96356.13;5013200;28;20068;-63
2021/07/13 07:50:01;;;;;;;16.10;6.95;;;;;;;23.22;57.13;96359.25;4996716;28;20061;-63
2021/07/13 07:52:27;;;;;;;11.35;6.57;;;;;;;23.20;57.20;96355.88;5046118;28;20126;-63
2021/07/13 07:54:52;;;;;;;11.95;6.57;;;;;;;23.15;57.28;96347.50;5014111;28;20077;-63
2021/07/13 07:57:17;;;;;;;10.55;6.22;;;;;;;23.18;56.84;96348.94;5013615;28;20065;-63
2021/07/13 07:59:44;;;;;;;11.43;6.25;;;;;;;23.21;56.88;96349.34;5014398;28;20051;-63
2021/07/13 08:02:09;;;;;;;12.55;5.93;;;;;;;23.29;56.35;96336.38;5014078;28;20049;-63
2021/07/13 08:04:35;;;;;;;12.40;5.93;;;;;;;23.27;56.11;96320.16;5014467;28;20080;-64
2021/07/13 08:07:01;;;;;;;9.80;5.47;;;;;;;23.40;55.99;96325.47;5012685;28;20025;-63
2021/07/13 08:09:26;;;;;;;10.18;5.82;;;;;;;23.38;56.43;96311.16;5014302;28;20088;-63
2021/07/13 08:11:53;;;;;;;11.50;5.75;;;;;;;23.45;56.21;96318.47;5014003;28;20436;-63
2021/07/13 08:14:18;;;;;;;11.38;5.78;;;;;;;23.55;55.88;96321.50;5012753;28;20360;-63
2021/07/13 08:16:45;;;;;;;12.07;6.20;;;;;;;23.63;55.59;96323.09;5013750;28;20037;-63
2021/07/13 08:19:11;;;;;;;13.48;5.32;;;;;;;23.66;56.70;96378.34;5013995;28;20475;-63
2021/07/13 08:21:37;;;;;;;10.25;5.40;;;;;;;23.63;56.20;96417.25;5012643;28;20414;-63
2021/07/13 08:24:03;;;;;;;13.52;5.30;;;;;;;23.44;57.49;96429.28;5013828;28;20379;-63
2021/07/13 08:26:29;;;;;;;13.63;5.85;;;;;;;23.46;57.70;96444.44;5014095;28;20029;-63
2021/07/13 08:28:54;;;;;;;10.63;5.40;;;;;;;23.32;58.00;96442.94;5014392;28;20026;-63
2021/07/13 08:31:20;;;;;;;12.82;5.40;;;;;;;23.48;57.18;96442.31;5013956;28;20037;-63
2021/07/13 08:33:46;;;;;;;11.98;5.70;;;;;;;23.38;57.17;96440.13;5012830;28;20030;-63
2021/07/13 08:36:12;;;;;;;13.68;5.75;;;;;;;23.41;58.77;96441.56;5013737;28;20030;-63
2021/07/13 08:38:37;;;;;;;8.88;5.20;;;;;;;23.50;58.48;96439.34;5013650;28;20470;-63
2021/07/13 08:41:03;;;;;;;10.30;4.88;;;;;;;23.53;57.88;96430.66;5013922;28;20075;-63
2021/07/13 08:43:29;;;;;;;8.88;5.10;;;;;;;23.59;58.41;96418.78;5013762;28;20103;-63
2021/07/13 08:45:55;;;;;;;14.73;5.80;;;;;;;23.73;57.78;96422.19;5014091;28;20022;-63
2021/07/13 08:48:22;;;;;;;11.20;4.80;;;;;;;23.79;56.88;96417.72;5012348;28;20478;-63
2021/07/13 08:50:48;;;;;;;12.68;5.18;;;;;;;23.73;57.37;96413.94;5013542;28;20101;-63
2021/07/13 08:53:13;;;;;;;13.23;5.35;;;;;;;23.66;58.06;96413.19;5013531;28;20050;-63
2021/07/13 08:55:38;;;;;;;10.93;4.55;;;;;;;23.61;56.75;96418.53;5013392;28;20053;-63
2021/07/13 08:58:04;;;;;;;9.10;4.28;;;;;;;23.60;56.74;96400.38;5013665;28;20037;-63
2021/07/13 09:00:29;;;;;;;8.52;4.50;;;;;;;23.55;56.09;96377.22;5013405;28;20036;-64
2021/07/13 09:03:09;;;;;;;9.55;4.28;;;;;;;23.53;55.43;96365.66;5013500;28;20149;-64
2021/07/13 09:05:47;;;;;;;10.77;4.40;;;;;;;23.59;55.39;96368.53;5013335;28;20033;-63
2021/07/13 09:08:15;;;;;;;8.13;4.30;;;;;;;23.45;56.07;96362.38;5013583;28;20109;-63
2021/07/13 09:11:01;;;;;;;8.98;4.15;;;;;;;23.38;55.96;96376.16;5013562;28;20030;-63
2021/07/13 09:13:30;;;;;;;8.50;4.10;;;;;;;23.37;55.99;96368.97;5006205;28;20044;-63
2021/07/13 09:15:59;;;;;;;10.20;4.10;;;;;;;23.40;56.05;96363.88;5013460;28;20502;-63
2021/07/13 09:18:32;;;;;;;9.82;3.90;;;;;;;23.45;55.71;96365.97;5012082;28;20026;-63
2021/07/13 09:21:24;;;;;;;8.70;3.97;;;;;;;23.38;56.17;96373.41;5013332;28;20026;-63
2021/07/13 09:24:05;;;;;;;9.52;4.10;;;;;;;23.38;56.22;96373.41;5011333;28;20038;-63
2021/07/13 09:26:38;;;;;;;5.13;3.90;;;;;;;23.40;56.54;96390.50;5013455;28;20026;-63
2021/07/13 09:29:03;;;;;;;10.52;3.83;;;;;;;23.43;56.52;96405.66;5016710;28;20030;-63
2021/07/13 09:31:29;;;;;;;8.73;4.10;;;;;;;23.33;56.86;96404.28;5016076;28;20030;-63
2021/07/13 09:33:54;;;;;;;16.17;4.50;;;;;;;23.38;56.93;96412.69;5017006;28;20108;-63
2021/07/13 09:36:19;;;;;;;10.18;3.90;;;;;;;23.32;57.10;96404.53;5017215;28;20069;-63
2021/07/13 09:38:52;;;;;;;9.65;4.20;;;;;;;23.38;57.72;96411.81;5016874;28;20458;-63
2021/07/13 09:41:19;;;;;;;11.48;4.10;;;;;;;23.35;57.06;96399.41;5017011;28;20022;-63
2021/07/13 09:43:49;;;;;;;12.10;4.60;;;;;;;23.30;57.28;96414.88;5015725;28;20120;-63
2021/07/13 09:46:28;;;;;;;8.38;4.10;;;;;;;23.35;56.94;96410.38;4999159;28;20486;-63
2021/07/13 09:49:09;;;;;;;11.07;4.50;;;;;;;23.27;57.43;96416.16;5016876;28;20026;-63
2021/07/13 09:51:34;;;;;;;8.40;4.75;;;;;;;23.31;57.63;96419.28;5016619;28;20021;-63
2021/07/13 09:54:00;;;;;;;10.90;4.65;;;;;;;23.31;58.42;96422.03;5016733;28;20026;-63
2021/07/13 09:56:44;;;;;;;9.68;4.30;;;;;;;23.26;57.72;96428.19;5016822;28;20129;-63
2021/07/13 09:59:10;;;;;;;10.18;3.95;;;;;;;23.30;58.04;96420.34;5015591;28;20041;-63
2021/07/13 10:01:35;;;;;;;13.88;5.00;;;;;;;23.31;57.87;96424.78;5016472;28;20393;-63
2021/07/13 10:04:01;;;;;;;10.27;4.57;;;;;;;23.30;57.91;96418.44;5016642;28;20034;-64
2021/07/13 10:06:31;;;;;;;7.25;4.70;;;;;;;23.22;58.91;96425.09;5015159;28;20036;-63
2021/07/13 10:09:00;;;;;;;16.40;5.13;;;;;;;23.31;59.50;96424.78;5016383;28;20030;-63
2021/07/13 10:11:28;;;;;;;11.00;4.82;;;;;;;23.45;57.99;96415.34;5015018;28;20033;-63
2021/07/13 10:13:56;;;;;;;10.25;4.78;;;;;;;23.52;57.50;96418.84;5016200;28;20037;-63
2021/07/13 10:16:22;;;;;;;7.88;4.72;;;;;;;23.78;56.82;96416.84;5015232;28;20089;-64
2021/07/13 10:18:48;;;;;;;10.18;4.72;;;;;;;24.26;55.32;96414.38;5016468;28;20034;-63
2021/07/13 10:21:14;;;;;;;8.93;4.75;;;;;;;24.20;55.74;96416.16;5014925;28;20037;-63
2021/07/13 10:23:43;;;;;;;15.57;4.85;;;;;;;24.29;55.52;96409.25;5014788;28;20025;-63
2021/07/13 10:26:11;;;;;;;12.77;4.70;;;;;;;24.29;55.20;96409.25;5014824;28;20034;-63
2021/07/13 10:28:36;;;;;;;9.90;5.43;;;;;;;24.16;55.67;96399.28;5015203;28;20038;-63
2021/07/13 10:31:02;;;;;;;11.10;4.90;;;;;;;24.20;55.65;96395.00;5016097;28;20105;-63
2021/07/13 10:33:37;;;;;;;11.48;4.75;;;;;;;24.22;55.57;96398.34;5014931;28;20026;-63
2021/07/13 10:36:31;;;;;;;11.80;4.85;;;;;;;24.33;55.39;96387.63;5014910;28;20022;-63
2021/07/13 10:39:26;;;;;;;13.30;5.20;;;;;;;24.35;55.68;96391.00;5014333;28;20029;-63
2021/07/13 10:41:52;;;;;;;9.70;4.97;;;;;;;24.55;54.90;96385.19;5014798;28;20109;-64
2021/07/13 10:44:46;;;;;;;8.65;4.72;;;;;;;24.56;54.91;96390.44;5015636;28;20029;-63
2021/07/13 10:47:27;;;;;;;13.98;5.55;;;;;;;25.03;54.54;96375.09;5016030;28;20493;-63
2021/07/13 10:50:17;;;;;;;9.55;4.75;;;;;;;25.12;53.31;96362.66;5015556;28;20455;-63
2021/07/13 10:52:52;;;;;;;11.73;4.93;;;;;;;25.21;53.71;96360.38;5015718;28;20033;-63
2021/07/13 10:55:30;;;;;;;9.85;4.45;;;;;;;25.17;53.75;96359.19;5014194;28;20128;-63
2021/07/13 10:58:10;;;;;;;9.20;4.63;;;;;;;25.42;53.13;96349.84;5015618;28;20036;-63
2021/07/13 11:00:49;;;;;;;10.32;4.88;;;;;;;25.51;52.87;96338.22;5015225;28;20033;-63
2021/07/13 11:03:29;;;;;;;9.57;4.25;;;;;;;25.47;53.41;96331.53;5015524;28;20056;-63
2021/07/13 11:06:05;;;;;;;7.32;4.35;;;;;;;25.25;52.40;96331.28;5015289;28;20026;-63
2021/07/13 11:08:47;;;;;;;6.40;4.13;;;;;;;25.19;53.03;96318.53;4997512;28;20029;-63
2021/07/13 11:11:15;;;;;;;9.63;4.22;;;;;;;25.26;53.08;96323.91;5015512;28;20026;-64
2021/07/13 11:14:02;;;;;;;9.52;4.25;;;;;;;25.29;52.88;96318.72;5015411;28;20076;-64
2021/07/13 11:16:34;;;;;;;7.80;3.92;;;;;;;25.43;51.83;96322.09;5046829;28;20026;-64
2021/07/13 11:19:02;;;;;;;9.68;3.55;;;;;;;25.13;51.70;96314.81;5013410;28;20018;-63
2021/07/13 11:21:30;;;;;;;8.88;3.92;;;;;;;25.34;51.58;96320.78;5014837;28;20045;-63
2021/07/13 11:23:58;;;;;;;7.15;3.80;;;;;;;25.31;51.07;96337.72;5013696;28;20080;-63
2021/07/13 11:26:25;;;;;;;6.45;3.45;;;;;;;25.14;51.12;96346.75;5015163;28;20126;-63
2021/07/13 11:28:52;;;;;;;8.27;3.70;;;;;;;25.52;50.25;96342.66;5014835;28;20486;-63
2021/07/13 11:31:23;;;;;;;9.48;3.30;;;;;;;25.29;50.16;96345.41;5014765;28;20026;-63